createdAt,value
2018-07-17T00:00:31.129Z,54.90
2018-07-17T00:03:00.803Z,55.00
2018-07-17T00:05:30.478Z,54.70
2018-07-17T00:08:00.088Z,54.70
2018-07-17T00:10:29.740Z,54.60
2018-07-17T00:12:59.761Z,54.90
2018-07-17T00:15:29.444Z,55.10
2018-07-17T00:17:58.919Z,54.80
2018-07-17T00:20:28.408Z,54.90
2018-07-17T00:24:00.782Z,54.80
2018-07-17T00:26:31.102Z,54.50
2018-07-17T00:29:00.559Z,54.80
2018-07-17T00:31:30.041Z,54.80
2018-07-17T00:33:59.488Z,54.30
2018-07-17T00:36:30.000Z,54.80
2018-07-17T00:38:59.774Z,54.30
2018-07-17T00:41:29.518Z,54.10
2018-07-17T00:44:00.711Z,54.50
2018-07-17T00:46:30.436Z,54.40
2018-07-17T00:49:00.192Z,54.30
2018-07-17T00:51:30.156Z,54.70
2018-07-17T00:53:59.859Z,54.60
2018-07-17T00:56:29.525Z,54.60
2018-07-17T00:58:59.319Z,54.20
2018-07-17T01:01:34.078Z,54.40
2018-07-17T01:04:08.780Z,54.40
2018-07-17T01:06:43.709Z,54.30
2018-07-17T01:09:18.435Z,53.50
2018-07-17T01:11:53.353Z,54.30
2018-07-17T01:14:59.928Z,53.90
2018-07-17T01:17:30.337Z,54.10
2018-07-17T01:19:59.967Z,53.90
2018-07-17T01:22:29.453Z,53.90
2018-07-17T01:24:59.205Z,53.90
2018-07-17T01:27:28.649Z,54.10
2018-07-17T01:29:58.189Z,54.10
2018-07-17T01:32:27.618Z,53.60
2018-07-17T01:34:57.080Z,53.70
2018-07-17T01:37:26.758Z,53.80
2018-07-17T01:39:56.188Z,53.60
2018-07-17T01:42:27.109Z,53.60
2018-07-17T01:44:56.958Z,53.70
2018-07-17T01:47:27.966Z,53.40
2018-07-17T01:49:57.774Z,53.60
2018-07-17T01:52:27.320Z,53.60
2018-07-17T01:54:57.014Z,54.30
2018-07-17T01:57:26.498Z,53.70
2018-07-17T01:59:56.007Z,53.30
2018-07-17T02:02:25.469Z,53.30
2018-07-17T02:04:55.189Z,53.50
2018-07-17T02:07:24.543Z,53.40
2018-07-17T02:09:54.007Z,53.20
2018-07-17T02:12:23.648Z,53.90
2018-07-17T02:14:53.138Z,54.00
2018-07-17T02:17:22.589Z,54.10
2018-07-17T02:19:52.165Z,54.10
2018-07-17T02:22:21.747Z,54.10
2018-07-17T02:24:51.181Z,54.00
2018-07-17T02:27:20.646Z,54.10
2018-07-17T02:29:50.086Z,53.70
2018-07-17T02:32:19.735Z,54.00
2018-07-17T02:34:49.510Z,53.90
2018-07-17T02:37:18.984Z,53.50
2018-07-17T02:39:48.459Z,53.50
2018-07-17T02:42:18.113Z,53.70
2018-07-17T02:44:48.473Z,53.40
2018-07-17T02:47:19.407Z,53.10
2018-07-17T02:49:49.122Z,53.20
2018-07-17T02:54:47.573Z,53.40
2018-07-17T02:57:17.662Z,53.80
2018-07-17T02:59:47.109Z,53.50
2018-07-17T03:02:16.654Z,53.20
2018-07-17T03:04:46.349Z,53.50
2018-07-17T03:07:17.062Z,54.20
2018-07-17T03:09:46.659Z,53.10
2018-07-17T03:12:16.511Z,53.10
2018-07-17T03:14:47.807Z,53.40
2018-07-17T03:17:17.298Z,53.30
2018-07-17T03:19:46.834Z,53.70
2018-07-17T03:22:16.406Z,54.20
2018-07-17T03:24:45.904Z,53.80
2018-07-17T03:27:16.829Z,53.70
2018-07-17T03:29:46.321Z,53.40
2018-07-17T03:32:15.782Z,53.70
2018-07-17T03:34:48.862Z,53.50
2018-07-17T03:37:21.560Z,53.60
2018-07-17T03:39:55.294Z,53.90
2018-07-17T03:42:29.222Z,53.60
2018-07-17T03:45:02.523Z,53.30
2018-07-17T03:47:34.136Z,53.70
2018-07-17T03:52:33.548Z,53.40
2018-07-17T03:55:04.222Z,53.60
2018-07-17T03:57:36.728Z,53.10
2018-07-17T04:00:10.822Z,53.80
2018-07-17T04:02:41.985Z,53.40
2018-07-17T04:05:12.586Z,53.80
2018-07-17T04:07:44.707Z,54.10
2018-07-17T04:10:14.892Z,54.20
2018-07-17T04:12:44.519Z,53.50
2018-07-17T04:15:14.947Z,53.50
2018-07-17T04:17:46.346Z,53.50
2018-07-17T04:20:17.226Z,53.50
2018-07-17T04:22:46.857Z,53.50
2018-07-17T04:25:16.335Z,53.90
2018-07-17T04:27:45.770Z,54.50
2018-07-17T04:30:17.756Z,53.90
2018-07-17T04:32:50.787Z,53.80
2018-07-17T04:35:24.282Z,53.90
2018-07-17T04:37:55.735Z,54.40
2018-07-17T04:40:28.402Z,53.80
2018-07-17T04:42:59.387Z,53.50
2018-07-17T04:45:35.745Z,53.80
2018-07-17T04:48:07.762Z,53.60
2018-07-17T04:50:37.203Z,53.80
2018-07-17T04:53:07.740Z,53.80
2018-07-17T04:55:37.185Z,53.90
2018-07-17T04:58:08.377Z,53.80
2018-07-17T05:00:39.065Z,53.80
2018-07-17T05:03:12.141Z,53.80
2018-07-17T05:05:42.680Z,54.20
2018-07-17T05:08:16.458Z,54.40
2018-07-17T05:10:46.511Z,54.50
2018-07-17T05:13:19.883Z,54.60
2018-07-17T05:15:52.869Z,54.60
2018-07-17T05:18:23.611Z,54.80
2018-07-17T05:20:55.903Z,54.80
2018-07-17T05:23:25.369Z,54.90
2018-07-17T05:25:54.970Z,55.10
2018-07-17T05:28:25.986Z,55.30
2018-07-17T05:30:55.445Z,55.40
2018-07-17T05:33:24.931Z,55.40
2018-07-17T05:35:54.600Z,55.60
2018-07-17T05:38:24.053Z,55.70
2018-07-17T05:40:53.630Z,55.80
2018-07-17T05:43:23.121Z,55.70
2018-07-17T05:45:52.601Z,55.90
2018-07-17T05:48:22.085Z,55.90
2018-07-17T05:50:51.552Z,56.00
2018-07-17T05:53:21.045Z,56.30
2018-07-17T05:55:51.094Z,56.40
2018-07-17T05:58:20.560Z,56.40
2018-07-17T06:00:50.011Z,56.50
2018-07-17T06:03:19.520Z,56.50
2018-07-17T06:05:49.080Z,56.50
2018-07-17T06:08:18.586Z,56.50
2018-07-17T06:10:48.210Z,56.60
2018-07-17T06:15:47.682Z,56.80
2018-07-17T06:18:17.959Z,57.00
2018-07-17T06:20:49.669Z,56.90
2018-07-17T06:23:19.142Z,56.80
2018-07-17T06:25:48.794Z,56.90
2018-07-17T06:28:19.923Z,57.50
2018-07-17T06:30:49.766Z,56.90
2018-07-17T06:33:19.818Z,56.80
2018-07-17T06:35:49.285Z,56.90
2018-07-17T06:38:18.974Z,56.80
2018-07-17T06:40:49.050Z,56.80
2018-07-17T06:43:18.699Z,57.00
2018-07-17T06:45:48.305Z,57.10
2018-07-17T06:48:18.387Z,57.30
2018-07-17T06:50:48.081Z,57.40
2018-07-17T06:53:18.907Z,57.20
2018-07-17T06:55:52.306Z,57.30
2018-07-17T06:58:22.017Z,57.70
2018-07-17T07:00:51.489Z,57.50
2018-07-17T07:03:21.110Z,57.60
2018-07-17T07:05:50.558Z,57.60
2018-07-17T07:08:20.018Z,57.60
2018-07-17T07:10:49.494Z,57.70
2018-07-17T07:13:19.371Z,57.60
2018-07-17T07:15:48.891Z,57.50
2018-07-17T07:18:18.590Z,57.60
2018-07-17T07:20:48.306Z,57.60
2018-07-17T07:23:18.359Z,57.50
2018-07-17T07:25:47.953Z,57.60
2018-07-17T07:28:17.432Z,57.50
2018-07-17T07:30:46.985Z,57.50
2018-07-17T07:33:16.475Z,57.50
2018-07-17T07:35:45.958Z,57.60
2018-07-17T07:38:15.579Z,57.50
2018-07-17T07:40:45.094Z,57.50
2018-07-17T07:43:14.705Z,57.50
2018-07-17T07:45:44.513Z,57.50
2018-07-17T07:48:14.017Z,57.40
2018-07-17T07:50:43.562Z,57.30
2018-07-17T07:53:13.283Z,57.30
2018-07-17T07:55:43.174Z,56.80
2018-07-17T07:58:12.896Z,56.80
2018-07-17T08:00:42.402Z,56.90
2018-07-17T08:05:40.952Z,56.90
2018-07-17T08:08:10.486Z,56.90
2018-07-17T08:10:41.596Z,57.00
2018-07-17T08:13:11.069Z,56.90
2018-07-17T08:15:40.733Z,57.00
2018-07-17T08:18:10.225Z,57.10
2018-07-17T08:20:39.749Z,57.10
2018-07-17T08:23:09.247Z,57.10
2018-07-17T08:25:38.754Z,57.00
2018-07-17T08:28:08.556Z,56.90
2018-07-17T08:30:38.319Z,57.00
2018-07-17T08:33:08.030Z,57.00
2018-07-17T08:35:37.711Z,57.00
2018-07-17T08:38:07.834Z,57.00
2018-07-17T08:40:37.396Z,57.10
2018-07-17T08:43:06.915Z,57.10
2018-07-17T08:45:36.376Z,57.10
2018-07-17T08:48:06.052Z,57.10
2018-07-17T08:50:35.722Z,57.10
2018-07-17T08:53:05.365Z,57.20
2018-07-17T08:55:34.943Z,57.20
2018-07-17T08:58:05.471Z,57.20
2018-07-17T09:00:35.142Z,57.30
2018-07-17T09:03:04.549Z,57.30
2018-07-17T09:05:34.655Z,57.40
2018-07-17T09:08:04.189Z,57.40
2018-07-17T09:10:33.658Z,57.30
2018-07-17T09:13:03.459Z,57.30
2018-07-17T09:15:32.894Z,57.30
2018-07-17T09:18:02.424Z,57.30
2018-07-17T09:20:31.897Z,57.40
2018-07-17T09:23:01.403Z,57.30
2018-07-17T09:25:31.216Z,57.40
2018-07-17T09:28:00.831Z,57.40
2018-07-17T09:30:35.715Z,57.30
2018-07-17T09:33:05.423Z,57.50
2018-07-17T09:35:35.200Z,57.40
2018-07-17T09:38:04.975Z,57.10
2018-07-17T09:40:34.497Z,57.20
2018-07-17T09:43:04.052Z,57.20
2018-07-17T09:45:33.700Z,57.20
2018-07-17T09:48:03.517Z,57.10
2018-07-17T09:50:33.356Z,56.40
2018-07-17T09:53:03.378Z,56.40
2018-07-17T09:55:33.054Z,56.50
2018-07-17T09:58:02.556Z,56.50
2018-07-17T10:04:54.966Z,56.60
2018-07-17T10:07:24.827Z,56.50
2018-07-17T10:09:54.376Z,56.60
2018-07-17T10:12:24.982Z,56.50
2018-07-17T10:14:54.989Z,56.50
2018-07-17T10:17:24.460Z,56.60
2018-07-17T10:19:53.952Z,56.70
2018-07-17T10:22:24.942Z,56.70
2018-07-17T10:24:54.739Z,56.60
2018-07-17T10:27:24.894Z,56.50
2018-07-17T10:29:54.401Z,56.30
2018-07-17T10:32:23.993Z,56.40
2018-07-17T10:34:53.449Z,56.30
2018-07-17T10:37:23.197Z,56.20
2018-07-17T10:39:53.383Z,56.00
2018-07-17T10:42:22.984Z,56.70
2018-07-17T10:44:52.791Z,56.00
2018-07-17T10:47:22.697Z,56.00
2018-07-17T10:49:52.157Z,56.00
2018-07-17T10:52:31.691Z,56.10
2018-07-17T10:55:01.966Z,56.20
2018-07-17T10:57:31.609Z,56.30
2018-07-17T11:00:01.386Z,56.20
2018-07-17T11:02:31.628Z,56.10
2018-07-17T11:05:01.352Z,56.40
2018-07-17T11:07:30.925Z,55.70
2018-07-17T11:10:00.832Z,55.40
2018-07-17T11:12:31.044Z,54.00
2018-07-17T11:15:00.749Z,52.90
2018-07-17T11:17:30.474Z,52.10
2018-07-17T11:20:00.056Z,51.40
2018-07-17T11:22:29.729Z,51.00
2018-07-17T11:24:59.445Z,51.40
2018-07-17T11:27:28.887Z,50.30
2018-07-17T11:29:58.582Z,49.70
2018-07-17T11:32:28.356Z,50.80
2018-07-17T11:34:58.147Z,51.20
2018-07-17T11:37:27.884Z,51.10
2018-07-17T11:39:57.564Z,51.40
2018-07-17T11:42:27.304Z,51.60
2018-07-17T11:44:56.835Z,51.70
2018-07-17T11:47:26.312Z,52.30
2018-07-17T11:49:56.074Z,51.70
2018-07-17T11:52:25.660Z,52.20
2018-07-17T11:54:55.136Z,51.30
2018-07-17T11:57:24.626Z,51.10
2018-07-17T11:59:54.106Z,51.30
2018-07-17T12:02:23.629Z,51.30
2018-07-17T12:04:53.258Z,50.80
2018-07-17T12:09:52.154Z,51.10
2018-07-17T12:12:22.490Z,51.20
2018-07-17T12:14:52.309Z,51.30
2018-07-17T12:17:21.914Z,51.10
2018-07-17T12:19:51.478Z,50.30
2018-07-17T12:22:20.962Z,50.70
2018-07-17T12:24:50.688Z,50.90
2018-07-17T12:27:21.070Z,50.70
2018-07-17T12:29:51.437Z,50.70
2018-07-17T12:32:21.219Z,50.00
2018-07-17T12:34:54.642Z,49.60
2018-07-17T12:37:26.880Z,49.90
2018-07-17T12:39:56.839Z,49.10
2018-07-17T12:42:28.057Z,49.60
2018-07-17T12:45:00.764Z,48.40
2018-07-17T12:47:31.355Z,48.40
2018-07-17T12:50:04.479Z,48.20
2018-07-17T12:52:37.842Z,48.00
2018-07-17T12:55:07.970Z,47.50
2018-07-17T12:57:38.058Z,48.50
2018-07-17T13:32:09.983Z,43.60
2018-07-17T13:34:39.767Z,43.10
2018-07-17T13:37:09.443Z,42.80
2018-07-17T13:42:08.997Z,43.50
2018-07-17T13:47:08.770Z,42.70
2018-07-17T13:52:07.585Z,42.50
2018-07-17T13:54:38.127Z,43.50
2018-07-17T13:57:07.780Z,42.70
2018-07-17T13:59:37.449Z,43.50
2018-07-17T14:02:07.346Z,42.30
2018-07-17T14:07:06.935Z,44.40
2018-07-17T14:09:37.008Z,42.90
2018-07-17T14:12:06.952Z,41.50
2018-07-17T14:14:37.036Z,41.30
2018-07-17T14:17:06.676Z,42.10
2018-07-17T14:19:36.320Z,41.70
2018-07-17T14:22:06.095Z,41.70
2018-07-17T14:24:35.616Z,41.10
2018-07-17T14:27:05.568Z,40.40
2018-07-17T14:29:36.637Z,41.60
2018-07-17T14:32:06.432Z,40.70
2018-07-17T14:34:36.777Z,41.00
2018-07-17T14:37:06.842Z,40.10
2018-07-17T14:39:36.528Z,39.00
2018-07-17T14:42:06.541Z,39.20
2018-07-17T14:44:36.095Z,39.90
2018-07-17T14:47:05.659Z,39.50
2018-07-17T14:49:36.317Z,40.60
2018-07-17T14:52:06.147Z,40.10
2018-07-17T14:54:35.780Z,40.50
2018-07-17T14:59:35.020Z,40.00
2018-07-17T15:02:04.698Z,39.60
2018-07-17T15:04:35.781Z,38.70
2018-07-17T15:07:05.781Z,38.40
2018-07-17T15:09:35.610Z,38.50
2018-07-17T15:12:05.422Z,38.50
2018-07-17T15:14:35.313Z,38.30
2018-07-17T15:17:05.376Z,39.10
2018-07-17T15:19:35.557Z,39.50
2018-07-17T15:22:06.089Z,38.70
2018-07-17T15:24:36.101Z,39.50
2018-07-17T15:27:06.037Z,38.50
2018-07-17T15:29:36.411Z,38.00
2018-07-17T15:32:06.543Z,37.80
2018-07-17T15:34:36.295Z,38.00
2018-07-17T15:37:06.516Z,37.70
2018-07-17T15:39:36.060Z,38.90
2018-07-17T15:42:05.892Z,38.70
2018-07-17T15:44:35.780Z,38.60
2018-07-17T15:47:05.575Z,38.80
2018-07-17T15:49:35.568Z,38.30
2018-07-17T15:52:05.430Z,39.00
2018-07-17T15:54:35.429Z,38.70
2018-07-17T15:57:05.104Z,38.50
2018-07-17T15:59:34.705Z,38.30
2018-07-17T16:02:04.543Z,38.00
2018-07-17T16:04:34.230Z,37.40
2018-07-17T16:07:04.000Z,38.20
2018-07-17T16:09:33.856Z,37.80
2018-07-17T16:12:03.809Z,39.00
2018-07-17T16:14:34.353Z,37.00
2018-07-17T16:17:03.995Z,37.90
2018-07-17T16:19:33.707Z,37.80
2018-07-17T16:22:03.442Z,36.70
2018-07-17T16:24:33.985Z,36.10
2018-07-17T16:27:03.892Z,37.70
2018-07-17T16:29:33.627Z,37.40
2018-07-17T16:32:03.174Z,37.60
2018-07-17T16:34:32.694Z,39.60
2018-07-17T16:37:02.169Z,40.90
2018-07-17T16:39:31.962Z,41.70
2018-07-17T16:42:01.714Z,42.20
2018-07-17T16:44:31.193Z,42.60
2018-07-17T16:47:00.937Z,43.60
2018-07-17T16:49:31.229Z,43.30
2018-07-17T16:52:01.274Z,43.40
2018-07-17T16:54:31.075Z,43.40
2018-07-17T16:57:00.884Z,43.80
2018-07-17T16:59:30.957Z,44.10
2018-07-17T17:02:00.736Z,44.40
2018-07-17T17:04:30.242Z,44.50
2018-07-17T17:06:59.798Z,44.80
2018-07-17T17:09:29.494Z,44.80
2018-07-17T17:11:59.260Z,44.90
2018-07-17T17:14:28.855Z,45.10
2018-07-17T17:16:58.619Z,44.60
2018-07-17T17:19:28.427Z,45.10
2018-07-17T17:21:58.026Z,45.20
2018-07-17T17:24:27.728Z,45.40
2018-07-17T17:27:05.457Z,45.30
2018-07-17T17:29:35.778Z,44.80
2018-07-17T17:32:05.311Z,44.90
2018-07-17T17:34:35.064Z,45.10
2018-07-17T17:37:04.995Z,45.10
2018-07-17T17:39:34.993Z,45.20
2018-07-17T17:42:04.904Z,45.00
2018-07-17T17:44:35.070Z,45.50
2018-07-17T17:47:04.642Z,45.20
2018-07-17T17:49:43.509Z,45.50
2018-07-17T17:52:13.690Z,45.70
2018-07-17T17:54:43.722Z,45.70
2018-07-17T17:57:13.730Z,46.00
2018-07-17T17:59:43.460Z,45.90
2018-07-17T18:02:13.546Z,46.20
2018-07-17T18:04:43.339Z,46.10
2018-07-17T18:07:13.298Z,46.30
2018-07-17T18:09:43.084Z,46.40
2018-07-17T18:12:13.020Z,46.30
2018-07-17T18:14:43.644Z,46.60
2018-07-17T18:17:13.550Z,46.80
2018-07-17T18:19:43.739Z,46.80
2018-07-17T18:22:14.241Z,46.90
2018-07-17T18:24:44.226Z,46.90
2018-07-17T18:27:14.406Z,47.10
2018-07-17T18:29:44.272Z,47.10
2018-07-17T18:32:14.157Z,47.30
2018-07-17T18:34:44.287Z,47.20
2018-07-17T18:37:14.200Z,47.30
2018-07-17T18:39:44.070Z,47.80
2018-07-17T18:44:43.878Z,47.20
2018-07-17T18:47:14.348Z,47.40
2018-07-17T18:52:44.483Z,47.30
2018-07-17T18:55:15.692Z,47.30
2018-07-17T18:57:45.563Z,47.50
2018-07-17T19:00:16.165Z,47.70
2018-07-17T19:02:47.294Z,47.50
2018-07-17T19:07:47.597Z,47.70
2018-07-17T19:10:17.646Z,47.60
2018-07-17T19:12:47.589Z,47.50
2018-07-17T19:15:20.944Z,47.40
2018-07-17T19:17:59.371Z,47.40
2018-07-17T19:20:31.059Z,47.60
2018-07-17T19:23:01.086Z,47.60
2018-07-17T19:25:38.181Z,47.40
2018-07-17T19:28:08.598Z,47.30
2018-07-17T19:30:38.872Z,47.80
2018-07-17T19:33:08.716Z,47.90
2018-07-17T19:35:38.455Z,48.00
2018-07-17T19:38:07.997Z,48.20
2018-07-17T19:40:37.754Z,48.50
2018-07-17T19:43:07.888Z,48.80
2018-07-17T19:45:37.819Z,49.60
2018-07-17T19:48:10.006Z,49.20
2018-07-17T19:50:40.983Z,49.30
2018-07-17T19:53:10.841Z,49.60
2018-07-17T19:55:45.586Z,49.80
2018-07-17T19:58:16.708Z,50.50
2018-07-17T20:01:00.247Z,50.20
2018-07-17T20:03:30.520Z,50.40
2018-07-17T20:06:03.556Z,50.30
2018-07-17T20:08:33.334Z,50.30
2018-07-17T20:11:02.797Z,50.40
2018-07-17T20:13:32.789Z,50.60
2018-07-17T20:16:02.520Z,50.90
2018-07-17T20:18:32.315Z,51.10
2018-07-17T20:21:16.223Z,51.10
2018-07-17T20:23:56.446Z,51.30
2018-07-17T20:26:27.451Z,51.40
2018-07-17T20:28:57.322Z,51.70
2018-07-17T20:31:26.912Z,52.30
2018-07-17T20:33:56.762Z,52.40
2018-07-17T20:36:26.388Z,51.90
2018-07-17T20:38:56.395Z,51.80
2018-07-17T20:41:26.134Z,52.00
2018-07-17T20:43:56.079Z,51.90
2018-07-17T20:46:26.242Z,52.00
2018-07-17T20:48:55.778Z,52.20
2018-07-17T20:51:28.482Z,52.20
2018-07-17T20:54:03.419Z,52.00
2018-07-17T20:56:33.266Z,52.20
2018-07-17T20:59:03.085Z,52.20
2018-07-17T21:01:34.701Z,52.40
2018-07-17T21:04:17.853Z,52.30
2018-07-17T21:06:55.471Z,52.30
2018-07-17T21:09:31.938Z,52.30
2018-07-17T21:12:04.175Z,52.40
2018-07-17T21:14:35.367Z,52.30
2018-07-17T21:17:07.444Z,52.20
2018-07-17T21:19:37.617Z,52.30
2018-07-17T21:22:07.992Z,52.30
2018-07-17T21:24:37.891Z,52.30
2018-07-17T21:27:07.713Z,52.40
2018-07-17T21:29:38.728Z,52.40
2018-07-17T21:32:08.448Z,52.40
2018-07-17T21:34:40.533Z,52.50
2018-07-17T21:39:40.172Z,52.50
2018-07-17T21:42:10.255Z,52.40
2018-07-17T21:44:40.791Z,52.70
2018-07-17T21:52:17.170Z,52.60
2018-07-17T21:54:47.321Z,52.60
2018-07-17T21:57:17.195Z,52.70
2018-07-17T21:59:47.124Z,52.70
2018-07-17T22:02:16.834Z,52.90
2018-07-17T22:04:46.568Z,52.80
2018-07-17T22:07:20.083Z,53.00
2018-07-17T22:09:49.763Z,53.10
2018-07-17T22:14:57.464Z,53.20
2018-07-17T22:17:33.982Z,53.30
2018-07-17T22:20:06.208Z,53.30
2018-07-17T22:22:41.281Z,53.40
2018-07-17T22:27:49.795Z,53.50
2018-07-17T22:30:36.113Z,53.50
2018-07-17T22:33:06.996Z,53.50
2018-07-17T22:35:37.135Z,53.60
2018-07-17T22:38:07.562Z,53.80
2018-07-17T22:40:37.499Z,53.80
2018-07-17T22:43:14.194Z,53.70
2018-07-17T22:45:45.001Z,53.70
2018-07-17T22:48:25.795Z,53.90
2018-07-17T22:51:10.837Z,54.10
2018-07-17T22:53:40.945Z,53.90
2018-07-17T22:56:11.385Z,54.00
2018-07-17T22:58:41.098Z,54.00
2018-07-17T23:01:11.941Z,54.10
2018-07-17T23:03:43.528Z,54.20
2018-07-17T23:06:28.962Z,54.20
2018-07-17T23:08:59.574Z,54.30
2018-07-17T23:16:28.681Z,54.10
2018-07-17T23:19:03.020Z,54.20
2018-07-17T23:21:36.005Z,54.40
2018-07-17T23:24:16.599Z,54.50
2018-07-17T23:26:50.381Z,54.40
2018-07-17T23:29:23.749Z,54.50
2018-07-17T23:31:56.034Z,54.70
2018-07-17T23:34:28.233Z,54.60
2018-07-17T23:36:59.080Z,54.70
2018-07-17T23:39:29.411Z,54.80
2018-07-17T23:42:01.523Z,55.00
2018-07-17T23:44:34.283Z,54.80
2018-07-17T23:47:12.064Z,54.80
2018-07-17T23:49:43.771Z,54.80
2018-07-17T23:52:14.790Z,54.90
2018-07-17T23:54:47.289Z,54.90
2018-07-17T23:57:35.112Z,55.10
